sensor_id;sensor_type;location;lat;lon;timestamp;temperature;humidity
1179;DHT22;578;48.408;10.004;2022-09-03T00:00:00;15.00;99.90
1179;DHT22;578;48.408;10.004;2022-09-03T00:02:35;15.00;99.30
1179;DHT22;578;48.408;10.004;2022-09-03T00:05:08;15.00;99.90
1179;DHT22;578;48.408;10.004;2022-09-03T00:07:41;15.00;99.20
1179;DHT22;578;48.408;10.004;2022-09-03T00:10:14;15.00;99.70
1179;DHT22;578;48.408;10.004;2022-09-03T00:12:42;14.90;99.70
1179;DHT22;578;48.408;10.004;2022-09-03T00:15:12;14.90;99.90
1179;DHT22;578;48.408;10.004;2022-09-03T00:17:43;14.90;99.90
1179;DHT22;578;48.408;10.004;2022-09-03T00:20:15;14.90;99.90
1179;DHT22;578;48.408;10.004;2022-09-03T00:22:46;14.90;99.50
1179;DHT22;578;48.408;10.004;2022-09-03T00:25:18;15.00;98.90
1179;DHT22;578;48.408;10.004;2022-09-03T00:27:49;15.10;98.10
1179;DHT22;578;48.408;10.004;2022-09-03T00:30:17;15.00;98.90
1179;DHT22;578;48.408;10.004;2022-09-03T00:32:47;14.90;99.50
1179;DHT22;578;48.408;10.004;2022-09-03T00:35:22;14.90;99.90
1179;DHT22;578;48.408;10.004;2022-09-03T00:37:50;14.70;99.90
1179;DHT22;578;48.408;10.004;2022-09-03T00:40:30;14.70;99.30
1179;DHT22;578;48.408;10.004;2022-09-03T00:43:00;14.60;99.60
1179;DHT22;578;48.408;10.004;2022-09-03T00:45:36;14.50;99.90
1179;DHT22;578;48.408;10.004;2022-09-03T00:48:12;14.50;99.90
1179;DHT22;578;48.408;10.004;2022-09-03T00:50:54;14.40;99.90
1179;DHT22;578;48.408;10.004;2022-09-03T00:53:31;14.40;99.90
1179;DHT22;578;48.408;10.004;2022-09-03T00:56:04;14.30;99.90
1179;DHT22;578;48.408;10.004;2022-09-03T00:58:43;14.20;99.90
1179;DHT22;578;48.408;10.004;2022-09-03T01:01:17;14.10;99.90
1179;DHT22;578;48.408;10.004;2022-09-03T01:03:52;14.10;99.90
1179;DHT22;578;48.408;10.004;2022-09-03T01:06:29;14.10;99.90
1179;DHT22;578;48.408;10.004;2022-09-03T01:09:11;14.00;99.90
1179;DHT22;578;48.408;10.004;2022-09-03T01:11:52;14.00;99.90
1179;DHT22;578;48.408;10.004;2022-09-03T01:14:38;14.00;99.90
1179;DHT22;578;48.408;10.004;2022-09-03T01:17:12;13.90;99.90
1179;DHT22;578;48.408;10.004;2022-09-03T01:20:14;13.90;99.90
1179;DHT22;578;48.408;10.004;2022-09-03T01:23:10;13.90;99.90
1179;DHT22;578;48.408;10.004;2022-09-03T01:25:50;13.90;99.90
1179;DHT22;578;48.408;10.004;2022-09-03T01:28:26;13.90;99.90
1179;DHT22;578;48.408;10.004;2022-09-03T01:31:00;14.00;99.90
1179;DHT22;578;48.408;10.004;2022-09-03T01:33:36;14.00;99.90
1179;DHT22;578;48.408;10.004;2022-09-03T01:36:12;14.10;99.90
1179;DHT22;578;48.408;10.004;2022-09-03T01:38:45;14.00;99.90
1179;DHT22;578;48.408;10.004;2022-09-03T01:41:19;14.10;99.90
1179;DHT22;578;48.408;10.004;2022-09-03T01:44:12;14.10;99.90
1179;DHT22;578;48.408;10.004;2022-09-03T01:46:42;14.20;99.90
1179;DHT22;578;48.408;10.004;2022-09-03T01:49:15;14.20;99.90
1179;DHT22;578;48.408;10.004;2022-09-03T01:51:49;14.20;99.90
1179;DHT22;578;48.408;10.004;2022-09-03T01:54:33;14.20;99.90
1179;DHT22;578;48.408;10.004;2022-09-03T01:57:37;14.10;99.90
1179;DHT22;578;48.408;10.004;2022-09-03T02:00:09;14.20;99.90
1179;DHT22;578;48.408;10.004;2022-09-03T02:02:38;14.20;99.90
1179;DHT22;578;48.408;10.004;2022-09-03T02:05:08;14.20;99.90
1179;DHT22;578;48.408;10.004;2022-09-03T02:07:38;14.10;99.90
1179;DHT22;578;48.408;10.004;2022-09-03T02:10:08;14.20;99.90
1179;DHT22;578;48.408;10.004;2022-09-03T02:12:38;14.20;99.90
1179;DHT22;578;48.408;10.004;2022-09-03T02:15:11;14.20;99.90
1179;DHT22;578;48.408;10.004;2022-09-03T02:17:40;14.20;99.90
1179;DHT22;578;48.408;10.004;2022-09-03T02:20:12;14.20;99.90
1179;DHT22;578;48.408;10.004;2022-09-03T02:22:44;14.10;99.90
1179;DHT22;578;48.408;10.004;2022-09-03T02:25:11;14.00;99.90
1179;DHT22;578;48.408;10.004;2022-09-03T02:27:39;14.00;99.90
1179;DHT22;578;48.408;10.004;2022-09-03T02:30:07;13.90;99.90
1179;DHT22;578;48.408;10.004;2022-09-03T02:32:35;13.90;99.90
1179;DHT22;578;48.408;10.004;2022-09-03T02:35:03;13.80;99.90
1179;DHT22;578;48.408;10.004;2022-09-03T02:37:29;13.80;99.90
1179;DHT22;578;48.408;10.004;2022-09-03T02:39:56;13.80;99.90
1179;DHT22;578;48.408;10.004;2022-09-03T02:42:23;13.80;99.90
1179;DHT22;578;48.408;10.004;2022-09-03T02:44:53;13.70;99.90
1179;DHT22;578;48.408;10.004;2022-09-03T02:47:22;13.70;99.90
1179;DHT22;578;48.408;10.004;2022-09-03T02:49:56;13.50;99.90
1179;DHT22;578;48.408;10.004;2022-09-03T02:52:23;13.50;99.90
1179;DHT22;578;48.408;10.004;2022-09-03T02:54:49;13.40;99.90
1179;DHT22;578;48.408;10.004;2022-09-03T02:57:16;13.30;99.90
1179;DHT22;578;48.408;10.004;2022-09-03T02:59:43;13.20;99.90
1179;DHT22;578;48.408;10.004;2022-09-03T03:02:10;13.20;99.90
1179;DHT22;578;48.408;10.004;2022-09-03T03:04:38;13.20;99.90
1179;DHT22;578;48.408;10.004;2022-09-03T03:07:06;13.20;99.90
1179;DHT22;578;48.408;10.004;2022-09-03T03:09:33;13.10;99.90
1179;DHT22;578;48.408;10.004;2022-09-03T03:12:00;13.00;99.90
1179;DHT22;578;48.408;10.004;2022-09-03T03:14:26;13.00;99.90
1179;DHT22;578;48.408;10.004;2022-09-03T03:16:53;12.90;99.90
1179;DHT22;578;48.408;10.004;2022-09-03T03:19:20;12.90;99.90
1179;DHT22;578;48.408;10.004;2022-09-03T03:21:46;12.90;99.90
1179;DHT22;578;48.408;10.004;2022-09-03T03:24:14;12.90;99.90
1179;DHT22;578;48.408;10.004;2022-09-03T03:26:41;12.90;99.90
1179;DHT22;578;48.408;10.004;2022-09-03T03:29:13;13.00;99.90
1179;DHT22;578;48.408;10.004;2022-09-03T03:31:41;13.00;99.90
1179;DHT22;578;48.408;10.004;2022-09-03T03:34:07;13.10;99.90
1179;DHT22;578;48.408;10.004;2022-09-03T03:36:34;13.10;99.90
1179;DHT22;578;48.408;10.004;2022-09-03T03:39:01;13.20;99.90
1179;DHT22;578;48.408;10.004;2022-09-03T03:41:31;13.30;99.90
1179;DHT22;578;48.408;10.004;2022-09-03T03:43:59;13.30;99.90
1179;DHT22;578;48.408;10.004;2022-09-03T03:46:29;13.30;99.90
1179;DHT22;578;48.408;10.004;2022-09-03T03:48:56;13.20;99.90
1179;DHT22;578;48.408;10.004;2022-09-03T03:51:24;13.10;99.90
1179;DHT22;578;48.408;10.004;2022-09-03T03:53:53;13.20;99.90
1179;DHT22;578;48.408;10.004;2022-09-03T03:56:21;13.20;99.90
1179;DHT22;578;48.408;10.004;2022-09-03T03:58:49;13.20;99.90
1179;DHT22;578;48.408;10.004;2022-09-03T04:01:18;13.20;99.90
1179;DHT22;578;48.408;10.004;2022-09-03T04:03:45;13.20;99.90
1179;DHT22;578;48.408;10.004;2022-09-03T04:06:13;13.20;99.90
1179;DHT22;578;48.408;10.004;2022-09-03T04:08:42;13.20;99.90
1179;DHT22;578;48.408;10.004;2022-09-03T04:11:11;13.20;99.90
1179;DHT22;578;48.408;10.004;2022-09-03T04:13:40;13.20;99.90
1179;DHT22;578;48.408;10.004;2022-09-03T04:16:10;13.30;99.90
1179;DHT22;578;48.408;10.004;2022-09-03T04:18:38;13.30;99.90
1179;DHT22;578;48.408;10.004;2022-09-03T04:21:06;13.30;99.90
1179;DHT22;578;48.408;10.004;2022-09-03T04:23:35;13.30;99.90
1179;DHT22;578;48.408;10.004;2022-09-03T04:26:03;13.30;99.90
1179;DHT22;578;48.408;10.004;2022-09-03T04:28:30;13.30;99.90
1179;DHT22;578;48.408;10.004;2022-09-03T04:31:00;13.30;99.90
1179;DHT22;578;48.408;10.004;2022-09-03T04:33:29;13.20;99.90
1179;DHT22;578;48.408;10.004;2022-09-03T04:36:02;13.10;99.90
1179;DHT22;578;48.408;10.004;2022-09-03T04:38:31;13.10;99.90
1179;DHT22;578;48.408;10.004;2022-09-03T04:40:58;13.10;99.90
1179;DHT22;578;48.408;10.004;2022-09-03T04:43:25;13.10;99.90
1179;DHT22;578;48.408;10.004;2022-09-03T04:45:55;13.10;99.90
1179;DHT22;578;48.408;10.004;2022-09-03T04:48:23;13.00;99.90
1179;DHT22;578;48.408;10.004;2022-09-03T04:50:51;13.00;99.90
1179;DHT22;578;48.408;10.004;2022-09-03T04:53:19;13.10;99.90
1179;DHT22;578;48.408;10.004;2022-09-03T04:55:46;13.10;99.90
1179;DHT22;578;48.408;10.004;2022-09-03T04:58:13;13.00;99.90
1179;DHT22;578;48.408;10.004;2022-09-03T05:00:40;12.90;99.90
1179;DHT22;578;48.408;10.004;2022-09-03T05:03:06;12.90;99.90
1179;DHT22;578;48.408;10.004;2022-09-03T05:05:33;12.90;99.90
1179;DHT22;578;48.408;10.004;2022-09-03T05:08:02;12.90;99.90
1179;DHT22;578;48.408;10.004;2022-09-03T05:10:30;12.90;99.90
1179;DHT22;578;48.408;10.004;2022-09-03T05:12:58;12.90;99.90
1179;DHT22;578;48.408;10.004;2022-09-03T05:15:25;12.90;99.90
1179;DHT22;578;48.408;10.004;2022-09-03T05:17:55;12.90;99.90
1179;DHT22;578;48.408;10.004;2022-09-03T05:20:22;12.90;99.90
1179;DHT22;578;48.408;10.004;2022-09-03T05:22:49;12.80;99.90
1179;DHT22;578;48.408;10.004;2022-09-03T05:25:17;12.70;99.90
1179;DHT22;578;48.408;10.004;2022-09-03T05:27:44;12.70;99.90
1179;DHT22;578;48.408;10.004;2022-09-03T05:30:11;12.70;99.90
1179;DHT22;578;48.408;10.004;2022-09-03T05:32:38;12.70;99.90
1179;DHT22;578;48.408;10.004;2022-09-03T05:35:07;12.70;99.90
1179;DHT22;578;48.408;10.004;2022-09-03T05:37:34;12.80;99.90
1179;DHT22;578;48.408;10.004;2022-09-03T05:40:02;12.80;99.90
1179;DHT22;578;48.408;10.004;2022-09-03T05:42:30;12.90;99.90
1179;DHT22;578;48.408;10.004;2022-09-03T05:45:04;12.80;99.90
1179;DHT22;578;48.408;10.004;2022-09-03T05:47:34;12.90;99.90
1179;DHT22;578;48.408;10.004;2022-09-03T05:50:01;12.90;99.90
1179;DHT22;578;48.408;10.004;2022-09-03T05:52:27;13.00;99.90
1179;DHT22;578;48.408;10.004;2022-09-03T05:54:54;13.10;99.90
1179;DHT22;578;48.408;10.004;2022-09-03T05:57:21;13.20;99.90
1179;DHT22;578;48.408;10.004;2022-09-03T05:59:49;13.30;99.90
1179;DHT22;578;48.408;10.004;2022-09-03T06:02:15;13.50;99.90
1179;DHT22;578;48.408;10.004;2022-09-03T06:04:44;13.50;99.90
1179;DHT22;578;48.408;10.004;2022-09-03T06:07:10;13.60;99.90
1179;DHT22;578;48.408;10.004;2022-09-03T06:09:37;13.70;99.90
1179;DHT22;578;48.408;10.004;2022-09-03T06:12:04;13.80;99.90
1179;DHT22;578;48.408;10.004;2022-09-03T06:14:31;13.90;99.90
1179;DHT22;578;48.408;10.004;2022-09-03T06:16:59;14.10;99.90
1179;DHT22;578;48.408;10.004;2022-09-03T06:19:25;14.20;99.90
1179;DHT22;578;48.408;10.004;2022-09-03T06:21:52;14.40;99.90
1179;DHT22;578;48.408;10.004;2022-09-03T06:24:20;14.40;99.90
1179;DHT22;578;48.408;10.004;2022-09-03T06:26:48;14.50;99.90
1179;DHT22;578;48.408;10.004;2022-09-03T06:29:16;14.70;99.90
1179;DHT22;578;48.408;10.004;2022-09-03T06:31:44;14.90;99.90
1179;DHT22;578;48.408;10.004;2022-09-03T06:34:14;15.00;99.90
1179;DHT22;578;48.408;10.004;2022-09-03T06:36:43;15.30;99.90
1179;DHT22;578;48.408;10.004;2022-09-03T06:39:10;15.60;99.90
1179;DHT22;578;48.408;10.004;2022-09-03T06:41:37;15.60;99.90
1179;DHT22;578;48.408;10.004;2022-09-03T06:44:05;15.70;99.90
1179;DHT22;578;48.408;10.004;2022-09-03T06:46:37;15.70;99.90
1179;DHT22;578;48.408;10.004;2022-09-03T06:49:06;15.70;99.90
1179;DHT22;578;48.408;10.004;2022-09-03T06:51:35;16.20;99.90
1179;DHT22;578;48.408;10.004;2022-09-03T06:54:05;16.50;99.90
1179;DHT22;578;48.408;10.004;2022-09-03T06:56:33;16.60;99.90
1179;DHT22;578;48.408;10.004;2022-09-03T06:59:03;16.90;99.90
1179;DHT22;578;48.408;10.004;2022-09-03T07:01:32;17.10;99.90
1179;DHT22;578;48.408;10.004;2022-09-03T07:04:00;17.10;99.90
1179;DHT22;578;48.408;10.004;2022-09-03T07:06:29;16.70;99.90
1179;DHT22;578;48.408;10.004;2022-09-03T07:08:58;17.10;99.90
1179;DHT22;578;48.408;10.004;2022-09-03T07:11:27;17.30;99.90
1179;DHT22;578;48.408;10.004;2022-09-03T07:13:56;17.10;99.90
1179;DHT22;578;48.408;10.004;2022-09-03T07:16:24;17.10;99.90
1179;DHT22;578;48.408;10.004;2022-09-03T07:18:52;17.00;99.90
1179;DHT22;578;48.408;10.004;2022-09-03T07:21:20;16.90;99.90
1179;DHT22;578;48.408;10.004;2022-09-03T07:23:49;17.00;99.90
1179;DHT22;578;48.408;10.004;2022-09-03T07:26:20;16.90;99.90
1179;DHT22;578;48.408;10.004;2022-09-03T07:28:47;16.80;99.90
1179;DHT22;578;48.408;10.004;2022-09-03T07:31:16;16.70;99.90
1179;DHT22;578;48.408;10.004;2022-09-03T07:33:44;16.60;99.90
1179;DHT22;578;48.408;10.004;2022-09-03T07:36:13;16.60;99.90
1179;DHT22;578;48.408;10.004;2022-09-03T07:38:41;16.40;99.90
1179;DHT22;578;48.408;10.004;2022-09-03T07:41:09;16.80;99.90
1179;DHT22;578;48.408;10.004;2022-09-03T07:43:38;16.90;99.90
1179;DHT22;578;48.408;10.004;2022-09-03T07:46:06;17.30;99.90
1179;DHT22;578;48.408;10.004;2022-09-03T07:48:33;17.30;99.90
1179;DHT22;578;48.408;10.004;2022-09-03T07:51:00;17.30;99.90
1179;DHT22;578;48.408;10.004;2022-09-03T07:53:27;17.40;99.90
1179;DHT22;578;48.408;10.004;2022-09-03T07:56:00;17.40;99.90
1179;DHT22;578;48.408;10.004;2022-09-03T07:58:27;17.20;99.90
1179;DHT22;578;48.408;10.004;2022-09-03T08:00:56;17.60;99.90
1179;DHT22;578;48.408;10.004;2022-09-03T08:03:22;17.80;99.90
1179;DHT22;578;48.408;10.004;2022-09-03T08:05:49;18.20;99.90
1179;DHT22;578;48.408;10.004;2022-09-03T08:08:16;18.30;99.90
1179;DHT22;578;48.408;10.004;2022-09-03T08:10:43;18.30;99.90
1179;DHT22;578;48.408;10.004;2022-09-03T08:13:09;18.20;99.90
1179;DHT22;578;48.408;10.004;2022-09-03T08:15:36;18.10;99.90
1179;DHT22;578;48.408;10.004;2022-09-03T08:18:06;18.20;99.90
1179;DHT22;578;48.408;10.004;2022-09-03T08:20:32;18.00;99.90
1179;DHT22;578;48.408;10.004;2022-09-03T08:23:00;18.10;99.90
1179;DHT22;578;48.408;10.004;2022-09-03T08:25:27;18.10;99.90
1179;DHT22;578;48.408;10.004;2022-09-03T08:27:56;18.10;99.90
1179;DHT22;578;48.408;10.004;2022-09-03T08:30:23;18.20;99.90
1179;DHT22;578;48.408;10.004;2022-09-03T08:32:50;18.10;99.90
1179;DHT22;578;48.408;10.004;2022-09-03T08:35:18;18.10;99.90
1179;DHT22;578;48.408;10.004;2022-09-03T08:37:46;18.10;99.90
1179;DHT22;578;48.408;10.004;2022-09-03T08:40:14;18.10;99.90
1179;DHT22;578;48.408;10.004;2022-09-03T08:42:48;18.40;99.90
1179;DHT22;578;48.408;10.004;2022-09-03T08:45:19;18.30;99.90
1179;DHT22;578;48.408;10.004;2022-09-03T08:47:48;18.30;99.90
1179;DHT22;578;48.408;10.004;2022-09-03T08:50:23;18.20;99.90
1179;DHT22;578;48.408;10.004;2022-09-03T08:52:53;18.20;99.90
1179;DHT22;578;48.408;10.004;2022-09-03T08:55:25;18.50;99.90
1179;DHT22;578;48.408;10.004;2022-09-03T08:57:58;18.90;99.90
1179;DHT22;578;48.408;10.004;2022-09-03T09:00:33;19.20;99.90
1179;DHT22;578;48.408;10.004;2022-09-03T09:03:18;19.30;99.90
1179;DHT22;578;48.408;10.004;2022-09-03T09:05:54;19.60;99.90
1179;DHT22;578;48.408;10.004;2022-09-03T09:08:27;19.60;99.90
1179;DHT22;578;48.408;10.004;2022-09-03T09:11:03;19.60;99.90
1179;DHT22;578;48.408;10.004;2022-09-03T09:13:40;19.50;99.90
1179;DHT22;578;48.408;10.004;2022-09-03T09:16:15;19.50;99.90
1179;DHT22;578;48.408;10.004;2022-09-03T09:18:57;19.40;99.90
1179;DHT22;578;48.408;10.004;2022-09-03T09:21:35;19.50;99.90
1179;DHT22;578;48.408;10.004;2022-09-03T09:24:07;19.30;99.90
1179;DHT22;578;48.408;10.004;2022-09-03T09:26:38;19.40;99.90
1179;DHT22;578;48.408;10.004;2022-09-03T09:29:09;19.50;99.90
1179;DHT22;578;48.408;10.004;2022-09-03T09:31:41;19.50;99.90
1179;DHT22;578;48.408;10.004;2022-09-03T09:34:10;19.70;99.90
1179;DHT22;578;48.408;10.004;2022-09-03T09:36:42;19.60;99.90
1179;DHT22;578;48.408;10.004;2022-09-03T09:39:14;19.70;99.90
1179;DHT22;578;48.408;10.004;2022-09-03T09:41:53;19.90;99.90
1179;DHT22;578;48.408;10.004;2022-09-03T09:44:27;19.90;99.90
1179;DHT22;578;48.408;10.004;2022-09-03T09:47:05;20.60;99.90
1179;DHT22;578;48.408;10.004;2022-09-03T09:49:53;21.30;99.90
1179;DHT22;578;48.408;10.004;2022-09-03T09:52:26;21.70;98.00
1179;DHT22;578;48.408;10.004;2022-09-03T09:55:07;22.20;97.80
1179;DHT22;578;48.408;10.004;2022-09-03T09:57:38;23.10;95.60
1179;DHT22;578;48.408;10.004;2022-09-03T10:00:07;23.30;93.70
1179;DHT22;578;48.408;10.004;2022-09-03T10:02:46;23.60;93.30
1179;DHT22;578;48.408;10.004;2022-09-03T10:05:20;23.00;91.50
1179;DHT22;578;48.408;10.004;2022-09-03T10:07:59;22.90;92.30
1179;DHT22;578;48.408;10.004;2022-09-03T10:10:32;22.90;93.40
1179;DHT22;578;48.408;10.004;2022-09-03T10:13:05;22.70;93.70
1179;DHT22;578;48.408;10.004;2022-09-03T10:15:46;22.00;94.40
1179;DHT22;578;48.408;10.004;2022-09-03T10:18:23;22.20;94.20
1179;DHT22;578;48.408;10.004;2022-09-03T10:20:58;22.10;94.20
1179;DHT22;578;48.408;10.004;2022-09-03T10:23:32;22.50;93.80
1179;DHT22;578;48.408;10.004;2022-09-03T10:26:03;22.30;94.40
1179;DHT22;578;48.408;10.004;2022-09-03T10:28:34;22.10;94.70
1179;DHT22;578;48.408;10.004;2022-09-03T10:31:18;22.10;95.70
1179;DHT22;578;48.408;10.004;2022-09-03T10:33:51;22.00;94.90
1179;DHT22;578;48.408;10.004;2022-09-03T10:36:23;21.80;95.50
1179;DHT22;578;48.408;10.004;2022-09-03T10:38:58;22.00;96.70
1179;DHT22;578;48.408;10.004;2022-09-03T10:41:38;22.20;96.10
1179;DHT22;578;48.408;10.004;2022-09-03T10:47:14;22.00;95.90
1179;DHT22;578;48.408;10.004;2022-09-03T10:49:48;22.00;99.30
1179;DHT22;578;48.408;10.004;2022-09-03T10:52:22;22.60;94.70
1179;DHT22;578;48.408;10.004;2022-09-03T10:55:03;23.00;93.90
1179;DHT22;578;48.408;10.004;2022-09-03T10:57:43;23.10;93.50
1179;DHT22;578;48.408;10.004;2022-09-03T11:00:12;23.20;93.60
1179;DHT22;578;48.408;10.004;2022-09-03T11:05:51;23.00;92.10
1179;DHT22;578;48.408;10.004;2022-09-03T11:08:24;23.20;90.50
1179;DHT22;578;48.408;10.004;2022-09-03T11:10:56;23.10;91.30
1179;DHT22;578;48.408;10.004;2022-09-03T11:13:29;23.40;92.80
1179;DHT22;578;48.408;10.004;2022-09-03T11:16:02;23.10;90.20
1179;DHT22;578;48.408;10.004;2022-09-03T11:18:34;23.10;89.90
1179;DHT22;578;48.408;10.004;2022-09-03T11:21:07;22.80;90.90
1179;DHT22;578;48.408;10.004;2022-09-03T11:23:40;22.90;90.90
1179;DHT22;578;48.408;10.004;2022-09-03T11:26:12;23.20;88.80
1179;DHT22;578;48.408;10.004;2022-09-03T11:28:43;23.80;87.10
1179;DHT22;578;48.408;10.004;2022-09-03T11:31:23;24.00;86.70
1179;DHT22;578;48.408;10.004;2022-09-03T11:33:55;24.30;90.40
1179;DHT22;578;48.408;10.004;2022-09-03T11:36:29;24.00;85.70
1179;DHT22;578;48.408;10.004;2022-09-03T11:38:56;23.80;86.20
1179;DHT22;578;48.408;10.004;2022-09-03T11:41:32;23.70;85.00
1179;DHT22;578;48.408;10.004;2022-09-03T11:44:10;24.00;89.50
1179;DHT22;578;48.408;10.004;2022-09-03T11:46:39;23.60;84.00
1179;DHT22;578;48.408;10.004;2022-09-03T11:49:11;23.90;86.60
1179;DHT22;578;48.408;10.004;2022-09-03T11:51:39;23.90;86.50
1179;DHT22;578;48.408;10.004;2022-09-03T11:54:24;23.60;86.70
1179;DHT22;578;48.408;10.004;2022-09-03T11:57:10;23.30;86.90
1179;DHT22;578;48.408;10.004;2022-09-03T11:59:39;22.90;86.30
1179;DHT22;578;48.408;10.004;2022-09-03T12:02:20;22.70;87.80
1179;DHT22;578;48.408;10.004;2022-09-03T12:05:00;22.30;91.20
1179;DHT22;578;48.408;10.004;2022-09-03T12:07:42;22.30;90.30
1179;DHT22;578;48.408;10.004;2022-09-03T12:10:22;21.90;91.50
1179;DHT22;578;48.408;10.004;2022-09-03T12:13:00;21.50;93.70
1179;DHT22;578;48.408;10.004;2022-09-03T12:15:59;21.30;93.60
1179;DHT22;578;48.408;10.004;2022-09-03T12:18:33;21.20;95.10
1179;DHT22;578;48.408;10.004;2022-09-03T12:21:02;21.00;96.10
1179;DHT22;578;48.408;10.004;2022-09-03T12:23:31;19.00;99.90
1179;DHT22;578;48.408;10.004;2022-09-03T12:25:59;16.00;99.90
1179;DHT22;578;48.408;10.004;2022-09-03T12:28:29;15.50;99.90
1179;DHT22;578;48.408;10.004;2022-09-03T12:31:06;15.50;99.90
1179;DHT22;578;48.408;10.004;2022-09-03T12:33:40;15.70;99.90
1179;DHT22;578;48.408;10.004;2022-09-03T12:36:08;16.20;99.90
1179;DHT22;578;48.408;10.004;2022-09-03T12:38:35;16.40;99.90
1179;DHT22;578;48.408;10.004;2022-09-03T12:41:02;16.60;99.90
1179;DHT22;578;48.408;10.004;2022-09-03T12:43:31;16.40;99.90
1179;DHT22;578;48.408;10.004;2022-09-03T12:45:58;16.70;99.90
1179;DHT22;578;48.408;10.004;2022-09-03T12:48:25;16.90;99.90
1179;DHT22;578;48.408;10.004;2022-09-03T12:51:01;17.30;99.90
1179;DHT22;578;48.408;10.004;2022-09-03T12:53:29;17.20;99.90
1179;DHT22;578;48.408;10.004;2022-09-03T12:56:00;17.50;99.90
1179;DHT22;578;48.408;10.004;2022-09-03T12:58:34;17.80;99.90
1179;DHT22;578;48.408;10.004;2022-09-03T13:01:07;17.60;99.90
1179;DHT22;578;48.408;10.004;2022-09-03T13:03:42;17.80;99.90
1179;DHT22;578;48.408;10.004;2022-09-03T13:06:14;18.30;99.90
1179;DHT22;578;48.408;10.004;2022-09-03T13:08:46;18.60;99.90
1179;DHT22;578;48.408;10.004;2022-09-03T13:11:15;18.50;99.90
1179;DHT22;578;48.408;10.004;2022-09-03T13:13:52;18.90;99.90
1179;DHT22;578;48.408;10.004;2022-09-03T13:16:50;19.00;99.90
1179;DHT22;578;48.408;10.004;2022-09-03T13:19:26;19.30;99.90
1179;DHT22;578;48.408;10.004;2022-09-03T13:22:03;19.60;99.90
1179;DHT22;578;48.408;10.004;2022-09-03T13:24:53;19.20;99.90
1179;DHT22;578;48.408;10.004;2022-09-03T13:27:30;18.70;99.90
1179;DHT22;578;48.408;10.004;2022-09-03T13:30:07;18.50;99.90
1179;DHT22;578;48.408;10.004;2022-09-03T13:32:41;18.80;99.90
1179;DHT22;578;48.408;10.004;2022-09-03T13:35:14;18.60;99.90
1179;DHT22;578;48.408;10.004;2022-09-03T13:37:44;18.50;99.90
1179;DHT22;578;48.408;10.004;2022-09-03T13:40:18;18.60;99.90
1179;DHT22;578;48.408;10.004;2022-09-03T13:42:50;18.60;99.90
1179;DHT22;578;48.408;10.004;2022-09-03T13:45:27;18.50;99.90
1179;DHT22;578;48.408;10.004;2022-09-03T13:47:59;18.30;99.90
1179;DHT22;578;48.408;10.004;2022-09-03T13:50:49;17.90;99.90
1179;DHT22;578;48.408;10.004;2022-09-03T13:53:23;17.70;99.90
1179;DHT22;578;48.408;10.004;2022-09-03T13:55:56;17.70;99.90
1179;DHT22;578;48.408;10.004;2022-09-03T13:58:32;17.40;99.90
1179;DHT22;578;48.408;10.004;2022-09-03T14:01:12;17.30;99.90
1179;DHT22;578;48.408;10.004;2022-09-03T14:03:43;17.20;99.90
1179;DHT22;578;48.408;10.004;2022-09-03T14:06:19;17.20;99.90
1179;DHT22;578;48.408;10.004;2022-09-03T14:08:58;17.20;99.90
1179;DHT22;578;48.408;10.004;2022-09-03T14:11:31;17.30;99.90
1179;DHT22;578;48.408;10.004;2022-09-03T14:14:09;17.40;99.90
1179;DHT22;578;48.408;10.004;2022-09-03T14:16:42;17.30;99.90
1179;DHT22;578;48.408;10.004;2022-09-03T14:19:16;17.70;99.90
1179;DHT22;578;48.408;10.004;2022-09-03T14:21:49;18.20;99.90
1179;DHT22;578;48.408;10.004;2022-09-03T14:24:23;18.60;99.90
1179;DHT22;578;48.408;10.004;2022-09-03T14:26:52;18.90;99.90
1179;DHT22;578;48.408;10.004;2022-09-03T14:29:23;19.00;99.90
1179;DHT22;578;48.408;10.004;2022-09-03T14:32:21;19.00;99.90
1179;DHT22;578;48.408;10.004;2022-09-03T14:35:15;18.80;99.90
1179;DHT22;578;48.408;10.004;2022-09-03T14:38:01;18.70;99.90
1179;DHT22;578;48.408;10.004;2022-09-03T14:40:39;18.70;99.90
1179;DHT22;578;48.408;10.004;2022-09-03T14:43:20;18.70;99.90
1179;DHT22;578;48.408;10.004;2022-09-03T14:46:16;18.60;99.90
1179;DHT22;578;48.408;10.004;2022-09-03T14:48:56;18.60;99.90
1179;DHT22;578;48.408;10.004;2022-09-03T14:51:34;18.90;99.90
1179;DHT22;578;48.408;10.004;2022-09-03T14:57:07;18.70;99.90
1179;DHT22;578;48.408;10.004;2022-09-03T14:59:47;18.60;99.90
1179;DHT22;578;48.408;10.004;2022-09-03T15:05:53;19.10;99.90
1179;DHT22;578;48.408;10.004;2022-09-03T15:11:31;19.30;99.90
1179;DHT22;578;48.408;10.004;2022-09-03T15:14:07;19.30;99.90
1179;DHT22;578;48.408;10.004;2022-09-03T15:16:42;19.50;99.90
1179;DHT22;578;48.408;10.004;2022-09-03T15:19:23;19.30;99.90
1179;DHT22;578;48.408;10.004;2022-09-03T15:22:08;19.50;99.90
1179;DHT22;578;48.408;10.004;2022-09-03T15:24:50;19.40;99.90
1179;DHT22;578;48.408;10.004;2022-09-03T15:27:34;19.30;99.90
1179;DHT22;578;48.408;10.004;2022-09-03T15:30:05;19.00;99.90
1179;DHT22;578;48.408;10.004;2022-09-03T15:32:51;19.10;99.90
1179;DHT22;578;48.408;10.004;2022-09-03T15:35:35;19.10;99.90
1179;DHT22;578;48.408;10.004;2022-09-03T15:38:08;19.10;99.90
1179;DHT22;578;48.408;10.004;2022-09-03T15:40:40;19.10;99.90
1179;DHT22;578;48.408;10.004;2022-09-03T15:43:10;19.30;99.90
1179;DHT22;578;48.408;10.004;2022-09-03T15:45:51;19.10;99.90
1179;DHT22;578;48.408;10.004;2022-09-03T15:48:28;19.00;99.90
1179;DHT22;578;48.408;10.004;2022-09-03T15:51:07;19.10;99.90
1179;DHT22;578;48.408;10.004;2022-09-03T15:53:41;19.10;99.90
1179;DHT22;578;48.408;10.004;2022-09-03T15:56:18;19.00;99.90
1179;DHT22;578;48.408;10.004;2022-09-03T15:58:51;19.00;99.90
1179;DHT22;578;48.408;10.004;2022-09-03T16:01:26;18.80;99.90
1179;DHT22;578;48.408;10.004;2022-09-03T16:04:01;18.80;99.90
1179;DHT22;578;48.408;10.004;2022-09-03T16:06:43;18.80;99.90
1179;DHT22;578;48.408;10.004;2022-09-03T16:09:24;18.70;99.90
1179;DHT22;578;48.408;10.004;2022-09-03T16:12:00;18.90;99.90
1179;DHT22;578;48.408;10.004;2022-09-03T16:14:36;18.60;99.90
1179;DHT22;578;48.408;10.004;2022-09-03T16:17:07;18.40;99.90
1179;DHT22;578;48.408;10.004;2022-09-03T16:19:39;18.40;99.90
1179;DHT22;578;48.408;10.004;2022-09-03T16:22:13;18.30;99.90
1179;DHT22;578;48.408;10.004;2022-09-03T16:24:47;18.30;99.90
1179;DHT22;578;48.408;10.004;2022-09-03T16:27:18;18.40;99.90
1179;DHT22;578;48.408;10.004;2022-09-03T16:29:56;18.20;99.90
1179;DHT22;578;48.408;10.004;2022-09-03T16:32:34;18.30;99.90
1179;DHT22;578;48.408;10.004;2022-09-03T16:35:15;18.20;99.90
1179;DHT22;578;48.408;10.004;2022-09-03T16:37:50;18.10;99.90
1179;DHT22;578;48.408;10.004;2022-09-03T16:40:31;18.00;99.90
1179;DHT22;578;48.408;10.004;2022-09-03T16:43:04;18.00;99.90
1179;DHT22;578;48.408;10.004;2022-09-03T16:45:42;18.00;99.90
1179;DHT22;578;48.408;10.004;2022-09-03T16:48:23;17.70;99.90
1179;DHT22;578;48.408;10.004;2022-09-03T16:51:02;17.70;99.90